Aviation Digital Data Service (ADDS)

Output produced by METARs form (2320 UTC 15 July 2018)
found at http://www.aviationweather.gov/adds/metars/
 
KJAN 152254Z 15009KT 10SM BKN040 29/24 A2998 RMK AO2 SLP147 T02890239
KJAN 152154Z 35004KT 10SM BKN050 32/23 A2997 RMK AO2 SLP145 T03220233
KJAN 152054Z 00000KT 10SM BKN050 32/24 A3000 RMK AO2 SLP152 T03220239 56012
KJAN 151954Z 29005KT 10SM BKN050 33/23 A3000 RMK AO2 SLP154 T03280228
KJAN 151854Z 26009KT 10SM SCT047 SCT100 34/23 A3001 RMK AO2 SLP156 T03440228
KJAN 151754Z 32008KT 10SM SCT041 SCT100 34/23 A3003 RMK AO2 SLP164 T03440233 10344 20250 58013
KJAN 151654Z 32006KT 10SM SCT030 34/23 A3005 RMK AO2 SLP172 T03390233
KJAN 151554Z 29003KT 10SM FEW030 FEW120 32/24 A3007 RMK AO2 SLP176 T03170239
KJAN 151454Z 28006KT 10SM FEW120 31/24 A3007 RMK AO2 SLP177 T03110239 50004
KJAN 151354Z 29005KT 10SM CLR 29/24 A3007 RMK AO2 SLP178 T02940239
KJAN 151254Z 27003KT 10SM CLR 27/24 A3006 RMK AO2 SLP173 T02720244
KJAN 151154Z 00000KT 10SM CLR 25/24 A3006 RMK AO2 SLP173 70017 T02500239 10250 20233 53008
KJAN 151054Z 00000KT 10SM FEW050 23/23 A3004 RMK AO2 SLP169 T02330228
KJAN 150954Z 00000KT 10SM CLR 24/23 A3003 RMK AO2 SLP165 T02440228
KJAN 150854Z 00000KT 10SM CLR 24/23 A3003 RMK AO2 SLP163 T02440233 56004
KJAN 150754Z 00000KT 10SM FEW047 BKN060 25/24 A3003 RMK AO2 SLP163 T02500239
KJAN 150654Z 00000KT 10SM FEW049 24/23 A3004 RMK AO2 SLP166 T02440233
KJAN 150554Z 14003KT 10SM CLR 24/23 A3004 RMK AO2 SLP168 T02440233 10283 20244 403610217 50002
KJAN 150454Z 22003KT 10SM CLR 24/24 A3005 RMK AO2 SLP170 T02440239
KJAN 150354Z 00000KT 10SM CLR 26/24 A3004 RMK AO2 SLP168 T02560239
KJAN 150254Z 00000KT 10SM SCT250 26/24 A3004 RMK AO2 SLP166 T02610239 51010
KJAN 150154Z 02003KT 10SM FEW060 SCT250 26/24 A3002 RMK AO2 TSB0055E39 SLP161 TS MOV W T02610239
KJAN 150145Z 32003KT 10SM SCT060 BKN250 26/23 A3002 RMK AO2 TSB0055E39 TS MOV W T02610233
KJAN 150101Z 23005KT 10SM TS FEW030CB SCT060 BKN250 27/24 A3002 RMK AO2 TSB0055 OCNL LTGICCCCG W TS W MOV W T02670239
KJAN 150054Z 23006KT 10SM SCT060 BKN250 27/24 A3003 RMK AO2 SLP163 T02720239
KJAN 142354Z 20003KT 10SM SCT022 BKN060 28/24 A3001 RMK AO2 LTG DSNT SE RAE27 TSE27 SLP156 TS MOV N P0000 60017 T02830244 10361 20261 56005
KJAN 142333Z 00000KT 10SM SCT022 BKN060 27/24 A3001 RMK AO2 LTG DSNT SE RAE27 TSE27 TS MOV N P0000 T02720244
KJAN 142254Z 32008KT 10SM -TSRA SCT022CB BKN060 BKN080 27/23 A3001 RMK AO2 WSHFT 2208 LTG DSNT SE RAB15E36B46 TSB36 SLP159 OCNL LTGICCC N TS N MOV N P0017 T02670233
KJAN 142236Z 33011G18KT 6SM TS HZ BKN055CB OVC075 26/23 A3002 RMK AO2 WSHFT 2208 RAB15E36 TSB36 OCNL LTGICCC N TS N MOV N P0009 T02610228
KJAN 142228Z 34010KT 10SM -RA FEW048 BKN060 OVC080 29/22 A3002 RMK AO2 WSHFT 2208 RAB15 P0000 T02940222
KJAN 142154Z 09006KT 10SM SCT050 BKN060 BKN075 33/23 A3001 RMK AO2 LTG DSNT W RAB08E23 SLP157 P0000 T03280233
KJAN 142054Z 29005KT 10SM SCT050 SCT070 BKN095 35/23 A3002 RMK AO2 LTG DSNT W SLP161 T03500228 58021
KJAN 141954Z 29005KT 10SM SCT049 BKN250 34/22 A3004 RMK AO2 LTG DSNT W SLP169 T03440222
KJAN 141854Z 35006KT 10SM SCT044 34/22 A3007 RMK AO2 SLP176 T03390217
KJAN 141754Z 33004KT 10SM SCT043 34/22 A3009 RMK AO2 SLP183 T03440222 10344 20233 58007
KJAN 141654Z 35005KT 10SM SCT036 34/22 A3010 RMK AO2 SLP189 T03390222
KJAN 141554Z COR 24005KT 10SM FEW040 32/23 A3011 RMK AO2 SLP192 T03220228
KJAN 141454Z 24005KT 10SM CLR 31/23 A3011 RMK AO2 SLP190 T03110233 50004
KJAN 141354Z VRB03KT 10SM CLR 28/24 A3011 RMK AO2 SLP191 T02830239
KJAN 141254Z 00000KT 10SM CLR 26/23 A3010 RMK AO2 SLP189 T02610233
KJAN 141154Z 13003KT 10SM FEW030 23/23 A3009 RMK AO2 SLP186 70001 T02330228 10233 20217 51008
KJAN 141054Z 00000KT 10SM FEW015 22/22 A3009 RMK AO2 SLP184 T02220217
KJAN 140954Z AUTO 00000KT 10SM BKN100 22/22 A3008 RMK AO2 SLP182 T02220222
KJAN 140854Z AUTO 00000KT 10SM CLR 23/22 A3007 RMK AO2 SLP178 T02280222 55002
KJAN 140754Z AUTO 00000KT 10SM CLR 23/22 A3007 RMK AO2 SLP177 T02280222
KJAN 140654Z AUTO 12005KT 10SM CLR 23/22 A3007 RMK AO2 SLP179 T02330222
KJAN 140554Z AUTO 00000KT 10SM CLR 23/23 A3008 RMK AO2 SLP180 T02280228 10278 20228 403330228 50001
KJAN 140454Z AUTO 00000KT 10SM CLR 23/23 A3009 RMK AO2 SLP183 T02330228
KJAN 140354Z 22003KT 10SM CLR 23/23 A3008 RMK AO2 SLP181 T02330228
KJAN 140254Z 00000KT 10SM CLR 24/23 A3007 RMK AO2 SLP179 T02440233 53003
KJAN 140154Z 11005KT 10SM SCT250 25/23 A3005 RMK AO2 SLP171 T02500233
KJAN 140054Z 00000KT 10SM FEW040 SCT085 BKN250 27/24 A3005 RMK AO2 SLP171 T02670239
KJAN 132354Z VRB03KT 10SM FEW040 SCT085 BKN250 28/23 A3007 RMK AO2 SLP176 60001 T02780233 10300 20261 56012
KJAN 132254Z 00000KT 10SM FEW040 SCT085 BKN250 27/23 A3008 RMK AO2 SLP180 T02720228
KJAN 132154Z 35004KT 10SM SCT045 SCT085 BKN250 27/22 A3009 RMK AO2 LTG DSNT N AND NE TSB20E35 SLP184 T02670222
KJAN 132141Z 03003KT 10SM SCT045 BKN085 27/22 A3009 RMK AO2 LTG DSNT N AND NE TSB20E35 T02670222
KJAN 132126Z 06006KT 10SM TS SCT045 BKN085 27/22 A3010 RMK AO2 LTG DSNT N-E TSB20 T02670222
KJAN 132054Z 04012KT 10SM VCTS SCT047 BKN085 29/23 A3010 RMK AO2 LTG DSNT NE AND E TSE23 SLP188 TS MOV W 60001 T02890233 53003
KJAN 132039Z 00000KT 10SM VCTS SCT047 BKN085 28/23 A3010 RMK AO2 LTG DSNT NE-SE TSE23 TS MOV W T02830228
KJAN 132025Z 01004KT 10SM SCT047 BKN085 28/23 A3010 RMK AO2 LTG DSNT NE-SE TSE23 TS MOV W T02830228
KJAN 131954Z 32003KT 10SM TS BKN047CB 28/23 A3009 RMK AO2 LTG DSNT ALQDS TSE01B02 SLP184 OCNL LTGICCCCG VC NW-NE TS VC NW-NE MOV W T02830228
KJAN 131854Z 14003KT 10SM TS FEW030CB SCT070 BKN110 27/24 A3009 RMK AO2 LTG DSNT ALQDS RAB04E43 TSB46 SLP185 OCNL LTGICCC W TS W MOV NE P0001 T02720244
KJAN 131852Z 14003KT 10SM TS FEW030CB SCT070 BKN110 27/24 A3009 RMK AO2 LTG DSNT ALQDS RAB04E43 TSB46 OCNL LTGICCC W TS W MOV NE P0001
KJAN 131807Z 08006KT 7SM VCTS -RA FEW030CB BKN075 BKN100 29/25 A3011 RMK AO2 LTG DSNT SE-W RAB04 OCNL LTGICCC VC S TS VC S MOV NE P0000 T02890250
KJAN 131754Z 06003KT 10SM FEW030 SCT080 BKN100 29/24 A3010 RMK AO2 LTG DSNT ALQDS SLP188 CB DSNT ALQDS T02890239 58009 $
KJAN 131654Z 24004KT 10SM SCT035 BKN050 32/24 A3012 RMK AO2 LTG DSNT SE-SW SLP194 CB DSNT SE-SW T03170244 $
KJAN 131554Z VRB04KT 10SM SCT035 33/24 A3013 RMK AO2 LTG DSNT S SLP196 CB DSNT S T03330244 $
KJAN 131454Z 00000KT 10SM FEW040 31/24 A3013 RMK AO2 SLP197 T03060244 50008 $
KJAN 131354Z 24003KT 10SM CLR 29/24 A3013 RMK AO2 SLP199 T02890244
KJAN 131254Z 19003KT 10SM CLR 27/24 A3012 RMK AO2 SLP195 T02670239
KJAN 131154Z 00000KT 10SM CLR 25/24 A3010 RMK AO2 SLP188 T02500239 10256 20239 53011
KJAN 131054Z 00000KT 10SM FEW020 24/23 A3009 RMK AO2 SLP184 T02440233
KJAN 130954Z AUTO 18003KT 10SM CLR 24/23 A3007 RMK AO2 SLP179 T02440233
KJAN 130854Z AUTO 18004KT 10SM CLR 24/23 A3007 RMK AO2 SLP176 T02440233 53004
KJAN 130754Z AUTO 17004KT 10SM SCT060 25/23 A3006 RMK AO2 SLP174 T02500233
KJAN 130654Z AUTO 00000KT 10SM CLR 26/23 A3006 RMK AO2 SLP172 T02560228
KJAN 130554Z AUTO 14006KT 10SM CLR 26/23 A3006 RMK AO2 SLP173 60000 T02560228 10333 20250 403560217 50001
KJAN 130454Z AUTO 15003KT 10SM CLR 25/23 A3007 RMK AO2 SLP178 T02500228
KJAN 130354Z 00000KT 10SM FEW060 27/23 A3008 RMK AO2 SLP179 T02670233
KJAN 130254Z 16003KT 10SM SCT060 27/23 A3005 RMK AO2 SLP172 60000 T02670228 53009
KJAN 130154Z 00000KT 10SM FEW060 FEW100 28/23 A3003 RMK AO2 RAE0057 SLP165 P0000 T02780233
KJAN 130054Z 13008KT 10SM -RA BKN060 BKN100 30/23 A3003 RMK AO2 RAB44 SLP165 P0000 T03000228
KJAN 122354Z 36003KT 10SM BKN050 33/22 A3003 RMK AO2 SLP163 T03330222 10356 20322 55002